Time;durP1;ratioP1;P1;durP2;ratioP2;P2;SDS_P1;SDS_P2;PMS_P1;PMS_P2;Temp;Humidity;BMP_temperature;BMP_pressure;BME280_temperature;BME280_humidity;BME280_pressure;Samples;Min_cycle;Max_cycle;Signal;HPM_P1;HPM_P2
2022/03/19 00:01:18;;;;;;;15.50;8.97;;;;;;;6.53;72.88;104184.66;6531590;22;19999;-72
2022/03/19 00:03:58;;;;;;;15.87;9.07;;;;;;;6.52;73.19;104192.34;6554264;22;20149;-73
2022/03/19 00:06:50;;;;;;;14.25;7.88;;;;;;;6.34;73.47;104186.97;6534015;22;20015;-72
2022/03/19 00:09:27;;;;;;;14.65;8.27;;;;;;;6.24;74.31;104188.13;6561301;22;20866;-81
2022/03/19 00:12:27;;;;;;;15.50;7.28;;;;;;;6.25;74.32;104179.56;6534259;22;20125;-72
2022/03/19 00:15:04;;;;;;;18.48;8.27;;;;;;;6.23;74.47;104183.78;6533626;22;20038;-85
2022/03/19 00:17:38;;;;;;;12.43;7.57;;;;;;;6.32;74.32;104183.41;6533220;22;20046;-86
2022/03/19 00:20:11;;;;;;;17.13;7.57;;;;;;;6.32;74.65;104184.31;6532648;22;20003;-83
2022/03/19 00:23:11;;;;;;;15.52;7.90;;;;;;;6.31;74.00;104191.97;6461884;23;20020;-82
2022/03/19 00:25:54;;;;;;;13.38;8.57;;;;;;;6.26;74.55;104178.75;6485949;22;20035;-83
2022/03/19 00:28:30;;;;;;;;;;;;;;;6.25;73.01;104186.44;6499048;23;20364;-73
2022/03/19 00:31:06;;;;;;;16.05;8.02;;;;;;;6.07;74.78;104174.19;6505779;23;19923;-72
2022/03/19 00:33:38;;;;;;;10.32;7.28;;;;;;;6.24;75.13;104174.28;6501222;23;20008;-77
2022/03/19 00:39:04;;;;;;;13.18;8.27;;;;;;;6.20;75.34;104181.00;6503575;23;20016;-73
2022/03/19 00:41:36;;;;;;;14.90;8.57;;;;;;;6.01;75.91;104171.22;6501119;23;20011;-74
2022/03/19 00:44:07;;;;;;;15.27;8.53;;;;;;;6.01;75.60;104166.94;6476194;23;20003;-76
2022/03/19 00:46:38;;;;;;;13.10;8.17;;;;;;;6.00;75.73;104166.84;6501407;23;20440;-86
2022/03/19 00:49:10;;;;;;;13.70;8.27;;;;;;;5.90;76.02;104172.22;6472712;23;20043;-76
2022/03/19 00:51:42;;;;;;;13.23;8.07;;;;;;;5.83;76.22;104170.97;6473104;23;20016;-83
2022/03/19 00:54:16;;;;;;;15.73;7.88;;;;;;;5.79;76.72;104166.38;6497158;23;20102;-75
2022/03/19 00:56:50;;;;;;;13.20;8.40;;;;;;;5.78;77.12;104165.50;6472716;23;20127;-75
2022/03/19 00:59:21;;;;;;;17.35;8.35;;;;;;;5.71;77.04;104159.84;6499934;23;20015;-78
2022/03/19 01:01:52;;;;;;;17.50;9.00;;;;;;;5.70;77.42;104160.63;6498133;23;20110;-74
2022/03/19 01:04:24;;;;;;;14.80;8.37;;;;;;;5.70;77.67;104161.56;6473071;23;20042;-72
2022/03/19 01:06:55;;;;;;;15.03;8.50;;;;;;;5.67;77.95;104166.53;6498350;23;20029;-90
2022/03/19 01:09:27;;;;;;;18.63;8.83;;;;;;;5.65;77.94;104161.25;6473021;23;20004;-89
2022/03/19 01:12:11;;;;;;;13.57;9.10;;;;;;;5.65;78.24;104155.16;6488301;22;20106;-85
2022/03/19 01:14:48;;;;;;;16.42;9.43;;;;;;;5.56;78.46;104158.09;6503752;22;20019;-74
2022/03/19 01:17:48;;;;;;;19.50;10.32;;;;;;;5.46;78.86;104150.56;6502966;22;19999;-78
2022/03/19 01:20:42;;;;;;;18.73;9.60;;;;;;;5.53;78.75;104151.84;6530786;22;20008;-87
2022/03/19 01:23:46;;;;;;;18.98;10.18;;;;;;;5.51;79.06;104156.91;6531234;22;20011;-72
2022/03/19 01:26:42;;;;;;;12.13;9.18;;;;;;;5.48;79.42;104157.63;6502228;22;20012;-72
2022/03/19 01:29:27;;;;;;;14.98;10.02;;;;;;;5.44;79.37;104158.25;6503181;22;20011;-73
2022/03/19 01:32:11;;;;;;;16.83;10.00;;;;;;;5.40;79.45;104153.66;6529223;22;20018;-78
2022/03/19 01:34:53;;;;;;;16.48;10.15;;;;;;;5.36;79.76;104151.69;6503666;22;20008;-74
2022/03/19 01:37:35;;;;;;;17.90;10.25;;;;;;;5.28;80.08;104151.19;6502536;22;20016;-75
2022/03/19 01:40:25;;;;;;;18.15;10.68;;;;;;;5.23;80.50;104155.19;6501591;22;20007;-72
2022/03/19 01:42:57;;;;;;;15.30;9.60;;;;;;;5.18;80.85;104151.41;6502455;22;20104;-76
2022/03/19 01:45:40;;;;;;;18.53;10.67;;;;;;;5.20;80.40;104149.81;6502728;22;20059;-72
2022/03/19 01:48:21;;;;;;;16.80;11.30;;;;;;;5.11;80.76;104142.34;6502112;22;20477;-74
2022/03/19 01:50:58;;;;;;;16.38;11.55;;;;;;;5.08;81.55;104143.84;6503163;22;20225;-74
2022/03/19 01:53:35;;;;;;;16.45;11.52;;;;;;;5.18;81.79;104147.94;6530472;22;20010;-74
2022/03/19 01:56:14;;;;;;;16.27;10.73;;;;;;;5.02;82.13;104141.75;6502618;22;20057;-72
2022/03/19 01:58:55;;;;;;;22.77;12.38;;;;;;;4.95;82.67;104142.19;6528097;22;20014;-72
2022/03/19 02:01:47;;;;;;;18.48;12.27;;;;;;;4.93;82.86;104141.19;6501847;22;20038;-70
2022/03/19 02:04:38;;;;;;;18.35;11.75;;;;;;;4.87;83.24;104139.09;6528608;22;20490;-73
2022/03/19 02:07:21;;;;;;;19.70;11.75;;;;;;;4.90;83.31;104138.41;6527483;22;20007;-72
2022/03/19 02:10:29;;;;;;;20.65;12.07;;;;;;;4.82;83.48;104131.84;6499764;22;20580;-73
2022/03/19 02:13:06;;;;;;;20.55;12.40;;;;;;;4.78;83.91;104132.44;6495945;23;20020;-72
2022/03/19 02:15:49;;;;;;;17.67;13.80;;;;;;;4.74;84.54;104124.47;6521210;22;20016;-73
2022/03/19 02:18:41;;;;;;;22.40;14.27;;;;;;;4.77;84.44;104115.16;6521296;22;20012;-81
2022/03/19 02:21:14;;;;;;;19.58;13.57;;;;;;;4.74;84.26;104116.72;6495756;23;20037;-72
2022/03/19 02:27:13;;;;;;;22.00;14.73;;;;;;;4.70;85.53;104108.66;6497497;23;20114;-72
2022/03/19 02:30:10;;;;;;;23.30;14.93;;;;;;;4.67;85.74;104111.97;6495838;23;20084;-73
2022/03/19 02:32:44;;;;;;;19.70;14.90;;;;;;;4.63;85.91;104101.31;6496024;23;20460;-80
2022/03/19 02:35:18;;;;;;;21.45;14.48;;;;;;;4.56;85.57;104092.28;6471990;23;20054;-74
2022/03/19 02:37:50;;;;;;;20.33;17.05;;;;;;;4.53;86.14;104092.09;6496551;23;20725;-73
2022/03/19 02:40:22;;;;;;;20.73;14.57;;;;;;;4.58;86.25;104090.69;6498456;23;20354;-80
2022/03/19 02:42:55;;;;;;;23.07;15.73;;;;;;;4.53;86.66;104102.41;6497636;23;20082;-78
2022/03/19 02:45:27;;;;;;;20.55;15.23;;;;;;;4.54;86.71;104080.94;6498269;23;20480;-84
2022/03/19 02:47:58;;;;;;;20.07;16.60;;;;;;;4.50;87.24;104090.19;6499963;23;20015;-73
2022/03/19 02:50:34;;;;;;;20.60;16.30;;;;;;;4.46;87.22;104090.78;6499776;23;20077;-73
2022/03/19 02:53:11;;;;;;;21.13;16.70;;;;;;;4.40;87.56;104081.75;6498997;23;20088;-73
2022/03/19 02:55:42;;;;;;;23.67;15.73;;;;;;;4.41;88.09;104075.78;6505805;23;20093;-85
2022/03/19 02:58:13;;;;;;;26.73;16.53;;;;;;;4.40;87.93;104086.91;6506142;23;20012;-72
2022/03/19 03:00:45;;;;;;;22.47;16.00;;;;;;;4.35;88.28;104081.44;6512483;23;20026;-86
2022/03/19 03:03:16;;;;;;;26.07;17.27;;;;;;;4.29;88.49;104081.03;6483610;23;20095;-73
2022/03/19 03:05:50;;;;;;;26.60;16.50;;;;;;;4.27;88.85;104077.47;6505404;23;20064;-72
2022/03/19 03:08:21;;;;;;;30.95;17.30;;;;;;;4.24;88.72;104085.88;6503414;23;20368;-72
2022/03/19 03:10:55;;;;;;;24.53;16.23;;;;;;;4.24;89.18;104074.66;6502335;23;20083;-72
2022/03/19 03:13:27;;;;;;;23.75;15.20;;;;;;;4.18;89.52;104083.78;6499135;23;20020;-85
2022/03/19 03:15:58;;;;;;;21.20;16.87;;;;;;;4.20;89.68;104089.03;6500134;23;20306;-85
2022/03/19 03:18:29;;;;;;;22.93;16.27;;;;;;;4.15;89.86;104087.84;6499468;23;20011;-74
2022/03/19 03:21:04;;;;;;;25.40;16.73;;;;;;;4.11;89.88;104089.34;6498125;23;20012;-76
2022/03/19 03:23:35;;;;;;;21.33;16.33;;;;;;;4.25;90.07;104094.53;6498743;23;20425;-74
2022/03/19 03:26:07;;;;;;;24.40;15.77;;;;;;;4.17;89.89;104089.75;6499390;23;20004;-72
2022/03/19 03:28:38;;;;;;;21.90;15.87;;;;;;;4.17;90.09;104094.91;6499146;23;20000;-85
2022/03/19 03:31:09;;;;;;;25.57;16.90;;;;;;;4.18;90.66;104098.38;6498828;23;20005;-72
2022/03/19 03:33:41;;;;;;;22.23;16.47;;;;;;;4.08;90.55;104091.72;6502653;23;20058;-77
2022/03/19 03:36:12;;;;;;;22.97;16.63;;;;;;;4.03;90.94;104094.78;6506224;23;20004;-72
2022/03/19 03:38:44;;;;;;;28.80;17.53;;;;;;;3.97;91.14;104082.34;6499180;23;20216;-78
2022/03/19 03:41:16;;;;;;;26.90;16.87;;;;;;;3.96;91.77;104086.63;6497150;23;20055;-71
2022/03/19 03:43:47;;;;;;;23.42;17.10;;;;;;;3.92;92.16;104088.91;6496614;23;20008;-81
2022/03/19 03:46:19;;;;;;;29.43;16.50;;;;;;;3.89;92.32;104086.09;6497693;23;20012;-72
2022/03/19 03:48:50;;;;;;;23.00;16.47;;;;;;;3.86;93.06;104085.88;6498380;23;20099;-73
2022/03/19 03:51:21;;;;;;;25.87;17.17;;;;;;;3.88;93.06;104085.22;6498396;23;20011;-73
2022/03/19 03:53:53;;;;;;;21.57;17.17;;;;;;;3.87;93.38;104083.41;6498614;23;20310;-75
2022/03/19 03:56:24;;;;;;;30.50;19.10;;;;;;;3.81;93.10;104083.00;6496993;23;20012;-71
2022/03/19 03:58:56;;;;;;;26.93;17.40;;;;;;;3.81;93.84;104077.84;6495518;23;20111;-71
2022/03/19 04:01:27;;;;;;;25.73;17.40;;;;;;;3.78;93.62;104082.78;6498378;23;20012;-83
2022/03/19 04:03:59;;;;;;;25.50;16.37;;;;;;;3.80;93.43;104078.63;6496813;23;19997;-73
2022/03/19 04:06:30;;;;;;;25.90;16.30;;;;;;;3.74;93.87;104075.63;6498965;23;20027;-77
2022/03/19 04:09:01;;;;;;;22.23;15.57;;;;;;;3.72;94.01;104078.13;6498662;23;20062;-77
2022/03/19 04:11:33;;;;;;;30.23;17.37;;;;;;;3.67;94.17;104084.66;6500469;23;20008;-76
2022/03/19 04:14:04;;;;;;;23.37;16.97;;;;;;;3.70;94.18;104073.63;6525355;22;20015;-83
2022/03/19 04:16:37;;;;;;;27.30;16.47;;;;;;;3.62;94.17;104079.16;6531554;22;20007;-75
2022/03/19 04:19:08;;;;;;;24.02;16.85;;;;;;;3.62;94.48;104070.50;6531270;22;19996;-77
2022/03/19 04:21:40;;;;;;;25.23;16.73;;;;;;;3.57;94.85;104072.78;6531735;22;20428;-78
2022/03/19 04:24:11;;;;;;;27.23;17.27;;;;;;;3.57;95.65;104074.47;6531559;22;20003;-73
2022/03/19 04:26:42;;;;;;;24.53;16.33;;;;;;;3.51;95.26;104072.38;6531214;22;20163;-76
2022/03/19 04:29:14;;;;;;;25.93;16.93;;;;;;;3.42;95.48;104072.63;6531553;22;20384;-74
2022/03/19 04:31:45;;;;;;;26.10;16.20;;;;;;;3.38;95.41;104068.06;6530696;22;20018;-77
2022/03/19 04:34:16;;;;;;;22.83;17.43;;;;;;;3.38;96.33;104068.06;6531320;22;20433;-73
2022/03/19 04:36:48;;;;;;;19.80;16.20;;;;;;;3.41;96.33;104072.50;6530956;22;20003;-76
2022/03/19 04:39:20;;;;;;;25.53;16.37;;;;;;;3.38;96.38;104070.63;6530848;22;20436;-75
2022/03/19 04:41:51;;;;;;;24.77;16.87;;;;;;;3.33;96.10;104063.34;6530322;22;19996;-75
2022/03/19 04:44:22;;;;;;;25.57;16.50;;;;;;;3.29;96.38;104060.53;6531288;22;20069;-73
2022/03/19 04:46:54;;;;;;;23.20;16.57;;;;;;;3.27;96.88;104064.72;6502602;22;20012;-73
2022/03/19 04:49:25;;;;;;;27.77;16.40;;;;;;;3.28;96.94;104055.28;6531364;22;20456;-74
2022/03/19 04:51:56;;;;;;;28.67;17.17;;;;;;;3.24;97.03;104050.72;6530867;22;20073;-74
2022/03/19 04:54:28;;;;;;;27.30;15.97;;;;;;;3.27;97.21;104058.66;6531071;22;20003;-77
2022/03/19 04:56:59;;;;;;;27.27;18.73;;;;;;;3.22;97.15;104058.34;6530898;22;20004;-80
2022/03/19 04:59:30;;;;;;;31.00;17.40;;;;;;;3.16;97.40;104059.59;6503254;22;20452;-73
2022/03/19 05:02:02;;;;;;;32.30;18.37;;;;;;;3.08;97.68;104057.34;6530683;22;20008;-75
2022/03/19 05:04:33;;;;;;;26.33;17.13;;;;;;;3.06;97.38;104060.63;6530475;22;20022;-73
2022/03/19 05:07:05;;;;;;;28.50;17.93;;;;;;;3.01;98.34;104067.13;6530500;22;20035;-75
2022/03/19 05:12:34;;;;;;;30.17;17.40;;;;;;;2.95;97.79;104061.53;6533985;22;20440;-81
2022/03/19 05:15:07;;;;;;;24.58;16.08;;;;;;;2.96;98.55;104065.91;6535093;22;20012;-74
2022/03/19 05:17:38;;;;;;;28.30;17.35;;;;;;;2.89;98.31;104068.03;6534474;22;20527;-80
2022/03/19 05:20:11;;;;;;;24.07;16.70;;;;;;;2.84;98.72;104063.34;6532438;22;20080;-74
2022/03/19 05:22:43;;;;;;;25.60;17.38;;;;;;;2.81;99.23;104068.28;6533018;22;20034;-74
2022/03/19 05:25:14;;;;;;;25.57;17.43;;;;;;;2.79;99.07;104069.88;6531226;22;20007;-73
2022/03/19 05:27:46;;;;;;;31.13;19.33;;;;;;;2.74;98.90;104072.09;6530698;22;20115;-73
2022/03/19 05:30:17;;;;;;;26.67;18.90;;;;;;;2.76;99.96;104073.09;6530511;22;20011;-79
2022/03/19 05:32:49;;;;;;;31.87;20.13;;;;;;;2.72;100.00;104069.41;6529670;22;20011;-80
2022/03/19 05:35:21;;;;;;;30.58;18.42;;;;;;;2.72;100.00;104073.66;6530081;22;20319;-75
2022/03/19 05:37:53;;;;;;;26.42;17.83;;;;;;;2.73;100.00;104072.88;6530013;22;20688;-73
2022/03/19 05:40:25;;;;;;;26.23;19.17;;;;;;;2.70;100.00;104064.91;6529847;22;20008;-74
2022/03/19 05:42:57;;;;;;;28.42;18.60;;;;;;;2.75;100.00;104063.56;6529969;22;20014;-73
2022/03/19 05:45:29;;;;;;;25.67;19.37;;;;;;;2.72;100.00;104074.56;6502634;22;20007;-72
2022/03/19 05:48:01;;;;;;;32.20;19.47;;;;;;;2.72;100.00;104069.41;6530284;22;20146;-75
2022/03/19 05:50:32;;;;;;;33.28;19.75;;;;;;;2.70;100.00;104070.06;6529865;22;20008;-74
2022/03/19 05:53:04;;;;;;;31.43;20.60;;;;;;;2.70;100.00;104067.50;6530209;22;20094;-73
2022/03/19 05:55:35;;;;;;;30.40;20.10;;;;;;;2.74;100.00;104060.09;6529492;22;20130;-73
2022/03/19 05:58:06;;;;;;;26.77;19.93;;;;;;;2.78;100.00;104068.94;6530352;22;20087;-74
2022/03/19 06:00:38;;;;;;;29.17;19.30;;;;;;;2.80;100.00;104064.81;6530011;22;20461;-74
2022/03/19 06:03:09;;;;;;;32.03;20.50;;;;;;;2.86;100.00;104074.66;6530408;22;20007;-72
2022/03/19 06:05:40;;;;;;;31.00;21.13;;;;;;;2.91;100.00;104076.78;6534735;22;20049;-74
2022/03/19 06:08:12;;;;;;;27.07;19.37;;;;;;;2.94;100.00;104076.09;6534875;22;20003;-74
2022/03/19 06:10:43;;;;;;;37.30;19.67;;;;;;;2.97;100.00;104073.75;6534912;22;20000;-74
2022/03/19 06:13:14;;;;;;;34.53;20.73;;;;;;;3.04;100.00;104070.84;6532600;22;20382;-75
2022/03/19 06:15:46;;;;;;;23.63;18.17;;;;;;;3.06;100.00;104078.69;6531090;22;20004;-73
2022/03/19 06:18:17;;;;;;;30.83;19.83;;;;;;;3.11;100.00;104074.75;6529747;22;20081;-80
2022/03/19 06:20:48;;;;;;;27.90;19.43;;;;;;;3.19;100.00;104080.41;6529853;22;20008;-74
2022/03/19 06:23:20;;;;;;;27.43;19.57;;;;;;;3.21;100.00;104076.28;6529895;22;20003;-75
2022/03/19 06:25:51;;;;;;;32.27;19.43;;;;;;;3.26;100.00;104080.97;6501746;22;20011;-76
2022/03/19 06:28:23;;;;;;;32.60;18.80;;;;;;;3.31;100.00;104081.28;6531131;22;20489;-74
2022/03/19 06:30:54;;;;;;;36.83;20.37;;;;;;;3.39;100.00;104077.56;6529288;22;20034;-75
2022/03/19 06:33:26;;;;;;;32.00;19.17;;;;;;;3.48;100.00;104082.47;6529131;22;20441;-73
2022/03/19 06:38:47;;;;;;;33.50;18.80;;;;;;;3.66;100.00;104072.53;6529637;22;20008;-74
2022/03/19 06:41:18;;;;;;;25.10;17.47;;;;;;;3.80;100.00;104081.19;6529551;22;20012;-73
2022/03/19 06:43:50;;;;;;;28.57;17.03;;;;;;;3.94;99.24;104075.28;6528817;22;20047;-74
2022/03/19 06:46:22;;;;;;;26.13;16.20;;;;;;;4.08;98.54;104077.91;6529295;22;20086;-72
2022/03/19 06:48:53;;;;;;;28.87;16.73;;;;;;;4.14;97.69;104083.50;6529407;22;20089;-73
2022/03/19 06:51:25;;;;;;;25.07;16.50;;;;;;;4.26;97.34;104078.25;6529442;22;20050;-73
2022/03/19 06:53:56;;;;;;;22.63;16.03;;;;;;;4.32;96.65;104079.53;6529363;22;20283;-74
2022/03/19 06:56:27;;;;;;;20.47;15.00;;;;;;;4.40;96.41;104076.59;6529440;22;20408;-72
2022/03/19 06:58:59;;;;;;;25.07;16.03;;;;;;;4.49;96.16;104080.66;6529581;22;20026;-73
2022/03/19 07:01:31;;;;;;;24.97;16.67;;;;;;;4.57;95.56;104070.78;6529708;22;20631;-73
2022/03/19 07:04:03;;;;;;;22.37;14.17;;;;;;;4.63;95.18;104084.13;6529107;22;20801;-72
2022/03/19 07:06:35;;;;;;;33.08;16.35;;;;;;;4.72;94.48;104076.97;6501495;22;20765;-78
2022/03/19 07:09:14;;;;;;;26.10;13.67;;;;;;;4.80;94.11;104079.13;6530034;22;20050;-72
2022/03/19 07:11:45;;;;;;;28.10;16.42;;;;;;;4.86;93.47;104075.28;6502084;22;20315;-73
2022/03/19 07:14:17;;;;;;;26.00;18.23;;;;;;;4.95;93.12;104074.97;6529208;22;20061;-75
2022/03/19 07:16:49;;;;;;;23.45;13.85;;;;;;;5.03;92.91;104084.09;6529366;22;20003;-72
2022/03/19 07:19:20;;;;;;;26.33;14.43;;;;;;;5.13;92.21;104075.22;6502715;22;20100;-72
2022/03/19 07:21:52;;;;;;;19.40;13.80;;;;;;;5.23;91.40;104071.50;6501891;22;20488;-74
2022/03/19 07:24:23;;;;;;;25.30;15.03;;;;;;;5.33;91.11;104079.06;6530112;22;20003;-74
2022/03/19 07:26:54;;;;;;;18.73;12.00;;;;;;;5.44;90.75;104082.28;6528743;22;20012;-74
2022/03/19 07:29:26;;;;;;;27.13;13.43;;;;;;;5.54;90.06;104075.97;6528548;22;20015;-80
2022/03/19 07:32:26;;;;;;;;;;;;;;;;;;;;;
2022/03/19 07:35:47;;;;;;;;;;;;;;;;;;;;;
2022/03/19 07:38:46;;;;;;;20.77;12.68;;;;;;;5.87;87.84;104063.28;6475207;22;20119;-74
2022/03/19 07:51:37;;;;;;;23.90;11.93;;;;;;;6.31;84.88;104060.75;6429277;23;20013;-74
2022/03/19 07:58:40;;;;;;;;;;;;;;;;;;;;;
2022/03/19 08:02:12;;;;;;;18.00;10.20;;;;;;;6.72;82.70;104061.31;6310089;23;20122;-73
2022/03/19 08:22:55;;;;;;;20.80;8.98;;;;;;;7.94;76.73;104058.28;5006273;27;9482715;-74
2022/03/19 08:25:42;;;;;;;;;;;;;;;;;;;;;
2022/03/19 08:28:34;;;;;;;20.08;9.02;;;;;;;8.14;74.84;104054.06;5262813;28;20039;-73
2022/03/19 08:31:36;;;;;;;23.38;9.10;;;;;;;8.31;74.76;104069.63;5316676;28;20081;-74
2022/03/19 08:34:49;;;;;;;15.75;9.43;;;;;;;8.43;74.42;104061.53;5296911;28;20039;-75
2022/03/19 08:40:53;;;;;;;22.98;9.65;;;;;;;8.77;72.25;104061.44;5296081;28;20036;-76
2022/03/19 08:43:27;;;;;;;12.95;8.60;;;;;;;8.99;72.00;104057.28;5296120;28;20032;-74
2022/03/19 08:45:59;;;;;;;13.18;7.55;;;;;;;9.20;71.10;104058.25;5313437;28;20023;-74
2022/03/19 08:48:30;;;;;;;11.87;7.83;;;;;;;9.32;69.80;104065.72;5318474;28;20122;-72
2022/03/19 08:54:33;;;;;;;10.57;6.40;;;;;;;9.79;67.68;104061.72;5320310;28;20126;-73
2022/03/19 08:57:36;;;;;;;13.13;8.35;;;;;;;10.30;67.03;104061.22;5190062;28;20184;-73
2022/03/19 09:00:08;;;;;;;15.57;7.63;;;;;;;10.79;64.32;104062.34;5171375;28;20066;-79
2022/03/19 09:02:40;;;;;;;17.98;8.93;;;;;;;11.16;61.73;104061.13;5154974;28;20035;-73
2022/03/19 09:05:13;;;;;;;12.30;6.73;;;;;;;11.26;60.34;104054.53;5170678;28;20164;-71
2022/03/19 09:07:44;;;;;;;13.90;7.07;;;;;;;11.41;59.66;104048.97;5156561;28;20038;-73
2022/03/19 09:10:16;;;;;;;14.67;6.70;;;;;;;11.93;59.50;104050.84;5153858;28;20047;-72
2022/03/19 09:12:47;;;;;;;12.97;6.53;;;;;;;12.06;57.54;104044.28;5170055;28;20039;-71
2022/03/19 09:15:19;;;;;;;11.80;6.13;;;;;;;12.17;57.29;104042.00;5170679;28;20066;-73
2022/03/19 09:17:50;;;;;;;15.60;7.43;;;;;;;12.54;56.31;104033.63;5169088;28;20093;-72
2022/03/19 09:20:23;;;;;;;17.17;6.60;;;;;;;12.73;55.75;104044.66;5167801;28;20130;-74
2022/03/19 09:23:01;;;;;;;9.52;6.10;;;;;;;12.83;54.14;104038.88;5167736;28;20530;-73
2022/03/19 09:25:36;;;;;;;10.90;6.65;;;;;;;13.09;53.46;104044.00;5167734;28;20047;-73
2022/03/19 09:28:08;;;;;;;15.88;6.10;;;;;;;13.13;53.56;104033.63;5172232;28;20042;-75
2022/03/19 09:30:39;;;;;;;14.63;6.63;;;;;;;13.76;52.59;104038.84;5208319;28;20049;-74
2022/03/19 09:33:10;;;;;;;17.23;7.40;;;;;;;13.93;50.46;104041.91;5256025;28;20059;-73
2022/03/19 09:35:48;;;;;;;15.50;5.93;;;;;;;14.13;50.46;104029.28;5261558;28;20100;-74
2022/03/19 09:38:22;;;;;;;11.32;5.78;;;;;;;14.18;50.02;104036.41;5301010;28;20070;-71
2022/03/19 09:40:54;;;;;;;14.43;8.25;;;;;;;14.23;49.05;104033.88;5302682;28;20143;-72
2022/03/19 09:43:28;;;;;;;13.57;5.80;;;;;;;14.26;47.93;104038.31;5305640;28;20027;-77
2022/03/19 09:46:01;;;;;;;13.45;10.05;;;;;;;14.57;49.12;104026.78;5285904;28;20086;-73
2022/03/19 09:48:33;;;;;;;12.65;5.30;;;;;;;14.74;47.12;104025.47;5277838;28;20063;-82
2022/03/19 09:51:08;;;;;;;12.80;5.35;;;;;;;15.01;47.11;104008.50;5280201;28;20075;-82
2022/03/19 09:53:43;;;;;;;15.52;6.72;;;;;;;15.46;46.55;104012.88;5281305;28;20074;-73
2022/03/19 09:56:16;;;;;;;12.57;6.25;;;;;;;15.51;44.14;104012.97;5278676;28;20021;-73
2022/03/19 09:58:48;;;;;;;13.15;6.40;;;;;;;15.61;45.69;104007.00;5279798;28;20065;-73
2022/03/19 10:01:19;;;;;;;13.10;6.60;;;;;;;15.57;43.16;104010.47;5279228;28;20086;-73
2022/03/19 10:03:51;;;;;;;11.33;5.90;;;;;;;16.08;42.96;103999.91;5279012;28;20028;-81
2022/03/19 10:09:21;;;;;;;11.73;5.32;;;;;;;16.04;41.80;103999.88;5280673;28;20037;-76
2022/03/19 10:11:53;;;;;;;12.43;4.53;;;;;;;16.12;39.91;103983.31;5283630;28;20040;-73
2022/03/19 10:14:25;;;;;;;10.97;4.67;;;;;;;16.49;38.68;103986.47;5282244;28;20533;-72
2022/03/19 10:16:57;;;;;;;14.57;5.03;;;;;;;16.69;38.74;103977.06;5311201;28;20038;-79
2022/03/19 10:19:29;;;;;;;9.38;4.47;;;;;;;16.85;37.32;103972.00;5306586;28;20023;-73
2022/03/19 10:22:09;;;;;;;11.90;4.53;;;;;;;17.26;37.41;103975.13;5309157;28;20048;-72
2022/03/19 10:24:54;;;;;;;9.40;5.13;;;;;;;17.61;36.96;103968.41;5307134;28;20024;-72
2022/03/19 10:27:37;;;;;;;13.80;6.63;;;;;;;17.54;36.33;103967.47;5307445;28;20052;-73
2022/03/19 10:30:15;;;;;;;;;;;;;;;19.10;35.19;103961.31;5305570;28;20035;-71
2022/03/19 10:32:54;;;;;;;11.25;4.43;;;;;;;18.34;33.55;103959.28;5304478;28;19916;-74
2022/03/19 10:35:31;;;;;;;9.13;4.53;;;;;;;18.29;32.69;103961.88;5308012;28;20028;-77
2022/03/19 10:38:25;;;;;;;10.57;4.57;;;;;;;18.51;33.10;103949.63;5308426;28;20032;-73
2022/03/19 10:41:01;;;;;;;10.98;4.65;;;;;;;17.99;32.00;103944.09;5277442;28;20036;-72
2022/03/19 10:43:39;;;;;;;11.10;4.50;;;;;;;18.00;32.54;103941.47;5297573;28;20027;-84
2022/03/19 10:46:15;;;;;;;11.32;7.03;;;;;;;18.48;31.64;103940.81;5304902;28;20043;-75
2022/03/19 10:48:57;;;;;;;12.40;6.05;;;;;;;18.90;30.75;103934.84;5306624;28;20062;-72
2022/03/19 10:51:31;;;;;;;11.55;4.40;;;;;;;19.54;28.37;103925.19;5306671;28;20582;-76
2022/03/19 10:54:03;;;;;;;11.00;3.67;;;;;;;19.16;26.15;103914.59;5306379;28;20020;-81
2022/03/19 10:56:35;;;;;;;12.75;3.50;;;;;;;19.08;27.32;103922.56;5312416;28;20038;-72
2022/03/19 10:59:09;;;;;;;7.77;3.70;;;;;;;19.91;26.42;103913.72;5307699;28;20028;-74
2022/03/19 11:01:44;;;;;;;9.85;3.85;;;;;;;20.01;24.77;103915.44;5301224;28;20027;-73
2022/03/19 11:04:15;;;;;;;7.82;3.72;;;;;;;19.60;26.14;103917.25;5303237;28;20067;-74
2022/03/19 11:06:53;;;;;;;9.00;3.47;;;;;;;20.82;25.96;103900.09;5292358;28;20028;-76
2022/03/19 11:09:42;;;;;;;9.43;4.55;;;;;;;20.54;24.81;103893.19;5274313;22;20064;-79
2022/03/19 11:12:20;;;;;;;9.68;3.45;;;;;;;20.22;23.73;103901.25;5224676;28;20396;-74
2022/03/19 11:14:53;;;;;;;8.35;3.30;;;;;;;20.90;22.64;103890.34;5239229;28;20056;-75
2022/03/19 11:17:30;;;;;;;12.52;3.92;;;;;;;21.22;22.99;103905.13;5239717;28;20519;-77
2022/03/19 11:20:09;;;;;;;7.00;3.20;;;;;;;21.04;22.28;103874.31;5234807;28;20402;-73
2022/03/19 11:22:50;;;;;;;6.75;3.10;;;;;;;21.10;21.65;103882.22;5218074;28;20034;-89
2022/03/19 11:25:44;;;;;;;9.27;3.60;;;;;;;20.44;22.64;103867.59;5219258;28;20025;-82
2022/03/19 11:28:17;;;;;;;7.90;3.58;;;;;;;20.82;21.51;103870.94;5219245;28;20025;-73
2022/03/19 11:31:03;;;;;;;7.28;3.17;;;;;;;20.87;21.53;103879.75;5234125;28;20048;-74
2022/03/19 11:33:38;;;;;;;8.25;4.00;;;;;;;21.28;20.95;103855.56;5235925;28;20025;-87
2022/03/19 11:36:10;;;;;;;7.88;3.10;;;;;;;21.67;19.20;103849.91;5242110;28;20025;-72
2022/03/19 11:38:51;;;;;;;8.20;3.67;;;;;;;22.03;20.71;103840.59;5228242;28;20029;-71
2022/03/19 11:41:25;;;;;;;7.13;3.13;;;;;;;22.10;19.94;103833.44;5246602;28;20052;-73
2022/03/19 11:44:18;;;;;;;5.32;2.95;;;;;;;23.39;19.66;103843.00;5229568;28;20036;-75
2022/03/19 11:47:13;;;;;;;8.27;3.63;;;;;;;23.32;18.57;103844.03;5230887;28;20430;-72
2022/03/19 11:49:52;;;;;;;5.90;3.55;;;;;;;23.08;17.06;103823.16;5247473;28;20036;-72
2022/03/19 11:52:26;;;;;;;10.25;3.80;;;;;;;23.14;18.15;103834.63;5237652;28;20448;-80
2022/03/19 11:55:00;;;;;;;9.85;3.45;;;;;;;23.63;16.77;103820.38;5234850;28;20040;-75
2022/03/19 11:57:55;;;;;;;10.77;3.40;;;;;;;23.72;17.41;103830.84;5235647;28;20091;-86
2022/03/19 12:00:28;;;;;;;7.97;3.42;;;;;;;23.84;15.99;103814.66;5234754;28;20079;-73
2022/03/19 12:03:16;;;;;;;7.07;2.85;;;;;;;23.96;17.25;103805.50;5218312;28;20030;-74
2022/03/19 12:05:48;;;;;;;6.75;3.03;;;;;;;23.49;15.48;103807.34;5236629;28;20044;-79
2022/03/19 12:08:23;;;;;;;7.28;3.03;;;;;;;23.10;15.47;103792.09;5235977;28;20457;-73
2022/03/19 12:11:01;;;;;;;6.50;3.15;;;;;;;23.41;14.83;103790.63;5234135;28;20130;-71
2022/03/19 12:13:32;;;;;;;9.95;3.05;;;;;;;23.35;14.55;103788.09;5218043;28;20090;-73
2022/03/19 12:16:06;;;;;;;5.93;2.58;;;;;;;23.29;14.67;103783.75;5236074;28;20025;-76
2022/03/19 12:18:41;;;;;;;6.78;2.80;;;;;;;22.80;14.80;103779.25;5234615;28;20048;-76
2022/03/19 12:21:13;;;;;;;6.70;2.60;;;;;;;23.35;13.61;103772.13;5236403;28;20041;-73
2022/03/19 12:24:06;;;;;;;12.37;2.83;;;;;;;23.62;14.56;103776.03;5238629;28;20128;-74
2022/03/19 12:26:49;;;;;;;6.28;3.40;;;;;;;23.31;13.98;103755.31;5247938;28;20017;-75
2022/03/19 12:29:20;;;;;;;6.85;2.88;;;;;;;23.97;13.81;103761.97;5239531;28;20045;-83
2022/03/19 12:31:52;;;;;;;5.97;3.55;;;;;;;24.04;13.92;103752.06;5229663;28;20060;-74
2022/03/19 12:34:26;;;;;;;4.78;2.55;;;;;;;24.47;13.61;103751.03;5224234;28;20022;-75
2022/03/19 12:37:00;;;;;;;6.18;2.85;;;;;;;24.41;14.01;103745.84;5234376;28;20499;-73
2022/03/19 12:39:31;;;;;;;5.88;3.45;;;;;;;25.45;13.50;103739.59;5234818;28;20041;-74
2022/03/19 12:42:03;;;;;;;5.97;3.05;;;;;;;25.61;14.08;103739.13;5234918;28;20997;-74
2022/03/19 12:44:36;;;;;;;4.43;2.45;;;;;;;25.33;13.25;103731.06;5234370;28;20102;-73
2022/03/19 12:47:08;;;;;;;7.15;3.00;;;;;;;25.09;14.61;103728.97;5233964;28;20631;-73
2022/03/19 12:49:51;;;;;;;12.07;4.50;;;;;;;25.45;14.73;103717.31;5234187;28;20029;-74
2022/03/19 12:52:22;;;;;;;5.05;2.85;;;;;;;26.50;13.84;103724.75;5234371;28;20108;-75
2022/03/19 12:54:57;;;;;;;4.57;2.60;;;;;;;27.10;13.28;103714.66;5233429;28;20075;-74
2022/03/19 12:57:31;;;;;;;8.40;3.65;;;;;;;26.03;13.29;103701.31;5233976;28;20029;-82
2022/03/19 13:00:04;;;;;;;6.55;3.00;;;;;;;27.10;12.21;103693.22;5233613;28;20068;-74